Estación Meteorológica Peña el Pijo (Robertgarden) [ 01/30/23 15:28:42 CET ]

Fecha Hora Presion(HPa) Temp (°C) Humedad % Rocio (°C) Viento ( m/s) Direccion Lluvia 1Hora(mm) Lluvia 24H(mm) LLuvia Total(mm)
2012-Dec-23 01:01:15 1016.600 4.7 71 -0.1         178.19
2012-Dec-23 02:04:10 1016.100 4.1 73 -0.3         178.19
2012-Dec-23 03:01:12 1015.900 2.8 78 -0.7         178.19
2012-Dec-23 04:01:15 1016.000 2.7 79 -0.6         178.19
2012-Dec-23 05:01:16 1015.600 1.8 80 -1.3         178.19
2012-Dec-23 06:01:11 1015.400 1.1 81 -1.8         178.19
2012-Dec-23 07:01:16 1015.700 0.9 82 -1.9         178.19
2012-Dec-23 08:01:12 1016.100 0.5 83 -2.1         178.19
2012-Dec-23 09:01:16 1016.200 0.3 82 -2.4         178.19
2012-Dec-23 10:01:12 1016.400 6.7 81 3.7         178.19
2012-Dec-23 11:01:14 1016.200 14.3 53 4.8         178.19
2012-Dec-23 12:01:17 1015.600 19.4 39 5.0         178.19
2012-Dec-23 13:01:14 1014.500 23.3 33 6.0         178.19
2012-Dec-23 14:01:12 1013.600 23.6 26 2.8         178.19
2012-Dec-23 15:01:17 1012.900 23.0 26 2.3         178.19
2012-Dec-23 16:01:17 1012.900 22.1 29 3.2         178.19
2012-Dec-23 17:01:13 1012.900 17.9 35 2.1         178.19
2012-Dec-23 18:01:13 1013.400 12.7 46 1.3         178.19
2012-Dec-23 19:01:14 1013.500 8.8 57 0.7         178.19
2012-Dec-23 20:01:14 1014.200 7.1 63 0.5         178.19
2012-Dec-23 21:01:17 1014.200 5.9 66 0.0         178.19
2012-Dec-23 22:01:12 1014.200 5.7 68 0.3         178.19
2012-Dec-23 23:01:16 1014.200 4.4 71 -0.4         178.19

Temperatura Máxima:23°    Temperatura Mínima:
Presión Máxima:1016.600 Hpa    Presión Mínima:1012.900 Hpa


Volver